Map

Track Data

SID SEASON NUMBER BASIN SUBBASIN NAME ISO_TIME NATURE LAT LON WMO_WIND WMO_PRES WMO_AGENCY TRACK_TYPE DIST2LAND LANDFALL IFLAG USA_AGENCY USA_ATCF_ID USA_LAT USA_LON USA_RECORD USA_STATUS USA_WIND USA_PRES USA_SSHS USA_R34_NE USA_R34_SE USA_R34_SW USA_R34_NW USA_R50_NE USA_R50_SE USA_R50_SW USA_R50_NW USA_R64_NE USA_R64_SE USA_R64_SW USA_R64_NW USA_POCI USA_ROCI USA_RMW USA_EYE TOKYO_LAT TOKYO_LON TOKYO_GRADE TOKYO_WIND TOKYO_PRES TOKYO_R50_DIR TOKYO_R50_LONG TOKYO_R50_SHORT TOKYO_R30_DIR TOKYO_R30_LONG TOKYO_R30_SHORT TOKYO_LAND CMA_LAT CMA_LON CMA_CAT CMA_WIND CMA_PRES HKO_LAT HKO_LON HKO_CAT HKO_WIND HKO_PRES NEWDELHI_LAT NEWDELHI_LON NEWDELHI_GRADE NEWDELHI_WIND NEWDELHI_PRES NEWDELHI_CI NEWDELHI_DP NEWDELHI_POCI REUNION_LAT REUNION_LON REUNION_TYPE REUNION_WIND REUNION_PRES REUNION_TNUM REUNION_CI REUNION_RMW REUNION_R34_NE REUNION_R34_SE REUNION_R34_SW REUNION_R34_NW REUNION_R50_NE REUNION_R50_SE REUNION_R50_SW REUNION_R50_NW REUNION_R64_NE REUNION_R64_SE REUNION_R64_SW REUNION_R64_NW BOM_LAT BOM_LON BOM_TYPE BOM_WIND BOM_PRES BOM_TNUM BOM_CI BOM_RMW BOM_R34_NE BOM_R34_SE BOM_R34_SW BOM_R34_NW BOM_R50_NE BOM_R50_SE BOM_R50_SW BOM_R50_NW BOM_R64_NE BOM_R64_SE BOM_R64_SW BOM_R64_NW BOM_ROCI BOM_POCI BOM_EYE BOM_POS_METHOD BOM_PRES_METHOD NADI_LAT NADI_LON NADI_CAT NADI_WIND NADI_PRES WELLINGTON_LAT WELLINGTON_LON WELLINGTON_WIND WELLINGTON_PRES DS824_LAT DS824_LON DS824_STAGE DS824_WIND DS824_PRES TD9636_LAT TD9636_LON TD9636_STAGE TD9636_WIND TD9636_PRES TD9635_LAT TD9635_LON TD9635_WIND TD9635_PRES TD9635_ROCI NEUMANN_LAT NEUMANN_LON NEUMANN_CLASS NEUMANN_WIND NEUMANN_PRES MLC_LAT MLC_LON MLC_CLASS MLC_WIND MLC_PRES USA_GUST BOM_GUST BOM_GUST_PER REUNION_GUST REUNION_GUST_PER USA_SEAHGT USA_SEARAD_NE USA_SEARAD_SE USA_SEARAD_SW USA_SEARAD_NW STORM_SPEED STORM_DIR
1953061S21171 1953 14 SP MM NOT_NAMED 1953-03-02 00:00:00 TS -21.0000 171.000 main 434 412 O________OO___ jtwc_sh SH151953 -21.0000 171.000 -1 -21.0000 171.000 TC -21.0000 171.000 2 9 199
1953061S21171 1953 14 SP MM NOT_NAMED 1953-03-02 03:00:00 TS -21.4092 170.849 main 402 383 P________PP___ SH151953 -21.4051 170.830 -1 -21.4051 170.830 TC -21.4173 170.886 2 9 198
1953061S21171 1953 14 SP MM NOT_NAMED 1953-03-02 06:00:00 TS -21.8059 170.726 main 383 380 O________OP___ jtwc_sh SH151953 -21.8000 170.700 -1 -21.8000 170.700 TC -21.8177 170.778 2 8 194
1953061S21171 1953 14 SP MM NOT_NAMED 1953-03-02 09:00:00 TS -22.1764 170.650 main 380 370 P________PP___ SH151953 -22.1725 170.635 -1 -22.1725 170.635 TC -22.1842 170.680 2 7 190
1953061S21171 1953 14 SP MM NOT_NAMED 1953-03-02 12:00:00 TS -22.5000 170.600 main 370 362 O________OO___ jtwc_sh SH151953 -22.5000 170.600 -1 -22.5000 170.600 TC -22.5000 170.600 2 6 190
1953061S21171 1953 14 SP MM NOT_NAMED 1953-03-02 15:00:00 TS -22.7669 170.533 main 363 363 P________PP___ SH151953 -22.7725 170.528 -1 -22.7725 170.528 TC -22.7557 170.545 2 5 189
1953061S21171 1953 14 SP MM NOT_NAMED 1953-03-02 18:00:00 TS -22.9907 170.510 main 367 367 O________OP___ jtwc_sh SH151953 -23.0000 170.500 -1 -23.0000 170.500 TC -22.9720 170.531 2 4 179
1953061S21171 1953 14 SP MM NOT_NAMED 1953-03-02 21:00:00 TS -23.1874 170.557 main 382 382 P________PP___ SH151953 -23.1924 170.548 -1 -23.1924 170.548 TC -23.1774 170.576 2 4 157
1953061S21171 1953 14 SP MM NOT_NAMED 1953-03-03 00:00:00 TS -23.4000 170.700 main 398 398 O________OO___ jtwc_sh SH151953 -23.4000 170.700 -1 -23.4000 170.700 TC -23.4000 170.700 2 6 144
1953061S21171 1953 14 SP MM NOT_NAMED 1953-03-03 03:00:00 TS -23.6897 170.955 main 438 438 P________PP___ SH151953 -23.6851 170.970 -1 -23.6851 170.970 TC -23.6991 170.924 2 8 139
1953061S21171 1953 14 SP MM NOT_NAMED 1953-03-03 06:00:00 TS -24.0052 171.275 main 478 478 O________OP___ jtwc_sh SH151953 -24.0000 171.300 -1 -24.0000 171.300 TC -24.0155 171.224 2 9 137
1953061S21171 1953 14 SP MM NOT_NAMED 1953-03-03 09:00:00 TS -24.3230 171.597 main 520 520 P________PP___ SH151953 -24.3225 171.615 -1 -24.3225 171.615 TC -24.3241 171.562 2 8 136
1953061S21171 1953 14 SP MM NOT_NAMED 1953-03-03 12:00:00 TS -24.6000 171.900 main 561 561 O________OO___ jtwc_sh SH151953 -24.6000 171.900 -1 -24.6000 171.900 TC -24.6000 171.900 2 7 134
1953061S21171 1953 14 SP MM NOT_NAMED 1953-03-03 15:00:00 TS -24.7731 172.111 main 589 589 P________PP___ SH151953 -24.7648 172.093 -1 -24.7648 172.093 TC -24.7898 172.147 2 5 129
1953061S21171 1953 14 SP MM NOT_NAMED 1953-03-03 18:00:00 TS -24.9163 172.331 main 612 612 O________OP___ jtwc_sh SH151953 -24.9000 172.300 -1 -24.9000 172.300 TC -24.9488 172.392 2 6 124
1953061S21171 1953 14 SP MM NOT_NAMED 1953-03-03 21:00:00 TS -25.0877 172.626 main 650 650 P________PP___ SH151953 -25.0774 172.605 -1 -25.0774 172.605 TC -25.1084 172.666 2 7 122
1953061S21171 1953 14 SP MM NOT_NAMED 1953-03-04 00:00:00 TS -25.3000 173.000 main 696 696 O________OO___ jtwc_sh SH151953 -25.3000 173.000 -1 -25.3000 173.000 TC -25.3000 173.000 2 9 123
1953061S21171 1953 14 SP MM NOT_NAMED 1953-03-04 03:00:00 TS -25.5822 173.463 main 756 756 P________PP___ SH151953 -25.5850 173.477 -1 -25.5850 173.477 TC -25.5766 173.434 2 11 124
1953061S21171 1953 14 SP MM NOT_NAMED 1953-03-04 06:00:00 TS -25.8952 173.977 main 815 815 O________OP___ jtwc_sh SH151953 -25.9000 174.000 -1 -25.9000 174.000 TC -25.8855 173.931 2 11 124
1953061S21171 1953 14 SP MM NOT_NAMED 1953-03-04 09:00:00 TS -26.2054 174.493 main 875 875 P________PP___ SH151953 -26.2074 174.508 -1 -26.2074 174.508 TC -26.2015 174.463 2 11 123
1953061S21171 1953 14 SP MM NOT_NAMED 1953-03-04 12:00:00 TS -26.5000 175.000 main 912 897 O________OO___ jtwc_sh SH151953 -26.5000 175.000 -1 -26.5000 175.000 TC -26.5000 175.000 2 10 123
1953061S21171 1953 14 SP MM NOT_NAMED 1953-03-04 15:00:00 TS -26.7540 175.449 main 889 881 P________PP___ SH151953 -26.7646 175.443 -1 -26.7646 175.443 TC -26.7327 175.462 2 9 121
1953061S21171 1953 14 SP MM NOT_NAMED 1953-03-04 18:00:00 TS -26.9825 175.909 main 881 876 O________OP___ jtwc_sh SH151953 -27.0000 175.900 -1 -27.0000 175.900 TC -26.9474 175.928 2 10 116
1953061S21171 1953 14 SP MM NOT_NAMED 1953-03-04 21:00:00 TS -27.1776 176.419 main 876 873 P________PP___ SH151953 -27.1847 176.413 -1 -27.1847 176.413 TC -27.1636 176.431 2 11 113
1953061S21171 1953 14 SP MM NOT_NAMED 1953-03-05 00:00:00 TS -27.4000 177.000 main 878 870 O________OO___ jtwc_sh SH151953 -27.4000 177.000 -1 -27.4000 177.000 TC -27.4000 177.000 2 12 117
1953061S21171 1953 14 SP MM NOT_NAMED 1953-03-05 03:00:00 TS -27.7347 177.667 main 880 870 P________PP___ SH151953 -27.7422 177.662 -1 -27.7422 177.662 TC -27.7195 177.676 2 14 119
1953061S21171 1953 14 SP MM NOT_NAMED 1953-03-05 06:00:00 TS -28.0843 178.407 main 878 878 O________OP___ jtwc_sh SH151953 -28.1000 178.400 -1 -28.1000 178.400 TC -28.0530 178.422 2 15 116
1953061S21171 1953 14 SP MM NOT_NAMED 1953-03-05 09:00:00 TS -28.3832 179.197 main 893 893 P________PP___ SH151953 -28.3949 179.192 -1 -28.3949 179.192 TC -28.3599 179.207 2 15 110
1953061S21171 1953 14 SP MM NOT_NAMED 1953-03-05 12:00:00 TS -28.6000 180.000 main 919 919 O________OO___ jtwc_sh SH151953 -28.6000 180.000 -1 -28.6000 180.000 TC -28.6000 180.000 2 14 103
1953061S21171 1953 14 SP MM NOT_NAMED 1953-03-05 15:00:00 TS -28.6929 180.751 main 956 956 P________PP___ SH151953 -28.6795 -179.242 -1 -28.6795 -179.242 TC -28.7199 -179.263 2 13 95
1953061S21171 1953 14 SP MM NOT_NAMED 1953-03-05 18:00:00 TS -28.7241 181.491 main 1000 1000 O________OP___ jtwc_sh SH151953 -28.7000 -178.500 -1 -28.7000 181.500 TC -28.7722 -178.526 2 13 93
1953061S21171 1953 14 SP MM NOT_NAMED 1953-03-05 21:00:00 TS -28.7625 182.236 main 1037 1037 P________PP___ SH151953 -28.7495 -177.757 -1 -28.7495 -177.757 TC -28.7885 -177.776 2 13 93
1953061S21171 1953 14 SP MM NOT_NAMED 1953-03-06 00:00:00 TS -28.8000 183.000 main 1072 1072 O________OO___ jtwc_sh SH151953 -28.8000 -177.000 -1 -28.8000 183.000 TC -28.8000 -177.000 2 14 94
1953061S21171 1953 14 SP MM NOT_NAMED 1953-03-06 03:00:00 TS -28.8546 183.789 main 1092 1092 P________PP___ SH151953 -28.8494 -176.222 -1 -28.8494 -176.222 TC -28.8651 -176.188 2 14 94
1953061S21171 1953 14 SP MM NOT_NAMED 1953-03-06 06:00:00 TS -28.9094 184.618 main 1127 1127 O________OP___ jtwc_sh SH151953 -28.9000 -175.400 -1 -28.9000 184.600 TC -28.9284 -175.346 2 15 94
1953061S21171 1953 14 SP MM NOT_NAMED 1953-03-06 09:00:00 TS -28.9688 185.491 main 1161 1161 P________PP___ SH151953 -28.9645 -174.523 -1 -28.9645 -174.523 TC -28.9774 -174.481 2 16 93
1953061S21171 1953 14 SP MM NOT_NAMED 1953-03-06 12:00:00 TS -29.0000 186.400 main 1208 1208 O________OO___ jtwc_sh SH151953 -29.0000 -173.600 -1 -29.0000 186.400 TC -29.0000 -173.600 2 16 90
1953061S21171 1953 14 SP MM NOT_NAMED 1953-03-06 15:00:00 TS -28.9639 187.342 main 1260 1260 P________PP___ SH151953 -28.9648 -172.642 -1 -28.9648 -172.642 TC -28.9623 -172.688 2 16 87
1953061S21171 1953 14 SP MM NOT_NAMED 1953-03-06 18:00:00 TS -28.9000 188.278 main 1329 1329 O________OP___ jtwc_sh SH151953 -28.9000 -171.700 -1 -28.9000 188.300 TC -28.8999 -171.767 2 16 85
1953061S21171 1953 14 SP MM NOT_NAMED 1953-03-06 21:00:00 TS -28.8354 189.166 main 1395 1395 P________PP___ SH151953 -28.8344 -170.820 -1 -28.8344 -170.820 TC -28.8374 -170.863 2 15 86
1953061S21171 1953 14 SP MM NOT_NAMED 1953-03-07 00:00:00 TS -28.8000 190.000 main 1448 1448 O________OO___ jtwc_sh SH151953 -28.8000 -170.000 -1 -28.8000 190.000 TC -28.8000 -170.000 2 14 90
1953061S21171 1953 14 SP MM NOT_NAMED 1953-03-07 03:00:00 TS -28.8318 190.774 main 1503 1503 P________PP___ SH151953 -28.8343 -169.235 -1 -28.8343 -169.235 TC -28.8268 -169.208 2 13 94
1953061S21171 1953 14 SP MM NOT_NAMED 1953-03-07 06:00:00 TS -28.8939 191.514 main 1544 1544 O________OP___ jtwc_sh SH151953 -28.9000 -168.500 -1 -28.9000 191.500 TC -28.8818 -168.457 2 13 95
1953061S21171 1953 14 SP MM NOT_NAMED 1953-03-07 09:00:00 TS -28.9534 192.258 main 1595 1595 P________PP___ SH151953 -28.9571 -167.750 -1 -28.9571 -167.750 TC -28.9459 -167.727 2 13 95
1953061S21171 1953 14 SP MM NOT_NAMED 1953-03-07 12:00:00 TS -29.0000 193.000 main 1646 1646 O________OO___ jtwc_sh SH151953 -29.0000 -167.000 -1 -29.0000 193.000 TC -29.0000 -167.000 2 13 93
1953061S21171 1953 14 SP MM NOT_NAMED 1953-03-07 15:00:00 TS -29.0143 193.746 main 1699 1699 P________PP___ SH151953 -29.0071 -166.250 -1 -29.0071 -166.250 TC -29.0288 -166.262 2 13 90
1953061S21171 1953 14 SP MM NOT_NAMED 1953-03-07 18:00:00 TS -29.0114 194.495 main 1760 1760 O________OP___ jtwc_sh SH151953 -29.0000 -165.500 -1 -29.0000 194.500 TC -29.0342 -165.514 2 13 90
1953061S21171 1953 14 SP MM NOT_NAMED 1953-03-07 21:00:00 TS -29.0064 195.247 main 1814 1814 P________PP___ SH151953 -28.9983 -164.750 -1 -28.9983 -164.750 TC -29.0224 -164.758 2 13 90
1953061S21171 1953 14 SP MM NOT_NAMED 1953-03-08 00:00:00 TS -29.0000 196.000 main 1877 O________OO___ jtwc_sh SH151953 -29.0000 -164.000 -1 -29.0000 196.000 TC -29.0000 -164.000 2 13 89

Digital Typhoon Data and Search

About IBTrACS Database

This database is a web-friendly format of International Best Track Archive for Climate Stewardship (IBTrACS), a global best track data archive curated by NOAA dating back to 1842.

Updated: 2021-11-26